Time;durP1;ratioP1;P1;durP2;ratioP2;P2;SDS_P1;SDS_P2;PMS_P1;PMS_P2;Temp;Humidity;BMP_temperature;BMP_pressure;BME280_temperature;BME280_humidity;BME280_pressure;Samples;Min_cycle;Max_cycle;Signal;HPM_P1;HPM_P2
2022/12/17 13:06:54;;;;;;;122.43;43.85;;;-1.90;68.10;;;;;;4732835;29;115194;-79
2022/12/17 13:09:27;;;;;;;114.57;43.55;;;-1.90;67.90;;;;;;4735551;29;114518;-79
2022/12/17 13:12:03;;;;;;;124.50;44.08;;;-1.90;67.90;;;;;;4722522;29;114427;-78
2022/12/17 13:14:44;;;;;;;116.80;44.00;;;-1.90;68.00;;;;;;4718865;29;115139;-79
2022/12/17 13:17:15;;;;;;;118.53;43.78;;;-1.90;68.00;;;;;;4714493;29;116277;-78
2022/12/17 13:20:00;;;;;;;116.75;44.05;;;-1.90;67.90;;;;;;4735024;29;114471;-79
2022/12/17 13:22:32;;;;;;;115.97;41.97;;;-1.90;67.90;;;;;;4729326;29;114639;-79
2022/12/17 13:25:18;;;;;;;121.28;43.95;;;-1.90;67.90;;;;;;4707095;29;116340;-79
2022/12/17 13:27:45;;;;;;;115.95;42.25;;;-1.80;68.00;;;;;;4722890;29;115341;-79
2022/12/17 13:30:16;;;;;;;116.00;40.90;;;-1.80;67.90;;;;;;4720643;29;114911;-79
2022/12/17 13:33:21;;;;;;;112.78;42.60;;;-1.80;67.80;;;;;;4718914;29;117344;-78
2022/12/17 13:36:09;;;;;;;116.43;42.85;;;-1.70;67.70;;;;;;4730024;29;115295;-79
2022/12/17 13:38:58;;;;;;;117.10;40.97;;;-1.80;67.80;;;;;;4713197;29;114700;-79
2022/12/17 13:41:37;;;;;;;109.10;38.85;;;-1.70;67.90;;;;;;4716081;29;114671;-78
2022/12/17 13:44:24;;;;;;;112.40;41.10;;;-1.80;67.90;;;;;;4719749;29;114620;-81
2022/12/17 13:46:54;;;;;;;114.28;41.45;;;-1.70;67.90;;;;;;4697400;29;115100;-78
2022/12/17 13:49:26;;;;;;;110.20;39.88;;;-1.80;68.00;;;;;;4701423;29;115055;-78
2022/12/17 13:52:03;;;;;;;104.97;41.45;;;-1.70;67.90;;;;;;4690194;29;115069;-80
2022/12/17 13:54:37;;;;;;;112.82;41.58;;;-1.70;68.00;;;;;;4702890;29;114468;-79
2022/12/17 13:57:11;;;;;;;109.13;40.55;;;-1.70;67.90;;;;;;4734477;29;115155;-79
2022/12/17 13:59:39;;;;;;;103.43;40.20;;;-1.70;67.80;;;;;;4713210;29;115069;-79
2022/12/17 14:02:27;;;;;;;113.22;42.67;;;-1.70;67.70;;;;;;4718947;29;114994;-79
2022/12/17 14:04:58;;;;;;;108.20;43.00;;;-1.70;67.60;;;;;;4737010;29;114792;-79
2022/12/17 14:07:36;;;;;;;107.32;42.72;;;-1.70;67.60;;;;;;4720416;29;115358;-79
2022/12/17 14:10:04;;;;;;;112.88;42.13;;;-1.70;67.80;;;;;;4717027;29;115001;-80
2022/12/17 14:12:34;;;;;;;105.47;39.63;;;-1.60;67.80;;;;;;4720531;29;114517;-80
2022/12/17 14:15:07;;;;;;;107.57;40.40;;;-1.60;67.70;;;;;;4724172;29;114552;-79
2022/12/17 14:17:41;;;;;;;105.07;39.42;;;-1.70;67.80;;;;;;4720618;29;115189;-80
2022/12/17 14:20:17;;;;;;;99.90;38.28;;;-1.70;67.80;;;;;;4721359;29;114985;-80
2022/12/17 14:22:58;;;;;;;104.05;41.80;;;-1.70;67.80;;;;;;4706822;29;115592;-79
2022/12/17 14:25:29;;;;;;;111.43;39.38;;;-1.60;67.90;;;;;;4722723;29;114577;-79
2022/12/17 14:28:01;;;;;;;107.07;40.95;;;-1.60;67.90;;;;;;4720045;29;115340;-79
2022/12/17 14:30:40;;;;;;;95.80;38.15;;;-1.60;67.90;;;;;;4723026;29;114573;-79
2022/12/17 14:33:29;;;;;;;87.82;35.78;;;-1.60;67.90;;;;;;4730078;29;114824;-79
2022/12/17 14:36:07;;;;;;;90.00;36.42;;;-1.70;67.80;;;;;;4722028;29;114622;-80
2022/12/17 14:38:35;;;;;;;91.88;37.72;;;-1.80;67.80;;;;;;4718156;29;115320;-79
2022/12/17 14:44:02;;;;;;;85.70;33.35;;;-1.80;67.80;;;;;;4732378;29;114490;-79
2022/12/17 14:46:29;;;;;;;87.72;34.38;;;-1.80;67.90;;;;;;4720290;29;114740;-80
2022/12/17 14:49:01;;;;;;;86.95;34.60;;;-1.80;68.00;;;;;;4720441;29;115595;-80
2022/12/17 14:51:39;;;;;;;95.55;35.20;;;-1.80;67.90;;;;;;4720560;29;115675;-79
2022/12/17 14:54:31;;;;;;;95.72;34.67;;;-1.80;67.90;;;;;;4721672;29;115303;-79
2022/12/17 14:56:58;;;;;;;90.30;34.30;;;-1.80;67.90;;;;;;4722673;29;114438;-79
2022/12/17 14:59:33;;;;;;;86.72;34.47;;;-1.80;67.80;;;;;;4720580;29;116294;-80
2022/12/17 15:02:27;;;;;;;86.30;33.97;;;-1.80;67.90;;;;;;4719246;29;114764;-79
2022/12/17 15:05:00;;;;;;;93.60;34.60;;;-1.80;68.00;;;;;;4720425;29;114851;-79
2022/12/17 15:07:29;;;;;;;85.47;33.30;;;-1.80;67.90;;;;;;4720934;29;114534;-79
2022/12/17 15:09:57;;;;;;;96.72;35.03;;;-1.70;67.90;;;;;;4720070;29;115177;-79
2022/12/17 15:12:24;;;;;;;97.93;38.55;;;-1.80;68.00;;;;;;4733883;29;115688;-79
2022/12/17 15:14:51;;;;;;;92.00;35.55;;;-1.70;68.00;;;;;;4736021;29;114516;-79
2022/12/17 15:17:19;;;;;;;92.97;36.58;;;-1.70;68.10;;;;;;4722515;29;114500;-79
2022/12/17 15:19:46;;;;;;;93.57;36.47;;;-1.70;68.10;;;;;;4720915;29;115146;-80
2022/12/17 15:22:21;;;;;;;97.13;35.70;;;-1.70;68.10;;;;;;4721493;29;115371;-78
2022/12/17 15:24:48;;;;;;;93.88;35.95;;;-1.70;68.10;;;;;;4691817;29;114556;-79
2022/12/17 15:27:16;;;;;;;93.25;34.85;;;-1.70;68.10;;;;;;4722732;29;114819;-79
2022/12/17 15:29:44;;;;;;;90.22;36.67;;;-1.70;68.10;;;;;;4720427;29;115783;-79
2022/12/17 15:32:22;;;;;;;95.88;35.85;;;-1.70;68.00;;;;;;4720674;29;116118;-79
2022/12/17 15:34:49;;;;;;;94.70;37.33;;;-1.70;68.00;;;;;;4720440;29;114651;-79
2022/12/17 15:37:17;;;;;;;95.28;36.97;;;-1.70;68.00;;;;;;4735260;29;114786;-80
2022/12/17 15:39:51;;;;;;;100.32;36.20;;;-1.80;68.00;;;;;;4706871;29;115875;-79
2022/12/17 15:45:05;;;;;;;91.20;35.83;;;-1.80;68.10;;;;;;4722240;29;114898;-79
2022/12/17 15:47:32;;;;;;;86.90;33.50;;;-1.80;68.20;;;;;;4722473;29;114708;-78
2022/12/17 15:50:01;;;;;;;97.75;35.47;;;-1.80;68.30;;;;;;4721686;29;114513;-79
2022/12/17 15:52:28;;;;;;;85.30;32.78;;;-1.80;68.40;;;;;;4720424;29;116379;-79
2022/12/17 15:54:55;;;;;;;97.63;35.05;;;-1.70;68.40;;;;;;4717157;29;115246;-78
2022/12/17 15:57:22;;;;;;;92.40;32.95;;;-1.70;68.40;;;;;;4717016;29;114902;-80
2022/12/17 15:59:50;;;;;;;88.93;34.42;;;-1.80;68.40;;;;;;4719058;29;116659;-79
2022/12/17 16:02:17;;;;;;;81.28;32.75;;;-1.70;68.30;;;;;;4719785;29;114661;-78
2022/12/17 16:04:45;;;;;;;82.25;31.77;;;-1.70;68.10;;;;;;4721815;29;114479;-79
2022/12/17 16:07:15;;;;;;;81.20;29.23;;;-1.70;67.90;;;;;;4721942;29;114432;-79
2022/12/17 16:09:44;;;;;;;81.15;32.42;;;-1.80;68.00;;;;;;4720632;29;115276;-79
2022/12/17 16:12:12;;;;;;;77.68;30.08;;;-1.80;67.90;;;;;;4718168;29;115919;-81
2022/12/17 16:14:39;;;;;;;79.15;29.60;;;-1.80;67.90;;;;;;4690993;29;115984;-79
2022/12/17 16:17:06;;;;;;;75.95;26.98;;;-1.90;67.90;;;;;;4721807;29;114940;-78
2022/12/17 16:19:33;;;;;;;68.43;27.48;;;-1.90;67.90;;;;;;4720219;29;115091;-78
2022/12/17 16:22:00;;;;;;;78.20;29.20;;;-1.90;67.80;;;;;;4719914;29;114821;-79
2022/12/17 16:24:28;;;;;;;72.88;27.98;;;-1.90;67.90;;;;;;4718623;29;114812;-79
2022/12/17 16:26:55;;;;;;;75.68;29.98;;;-1.90;67.90;;;;;;4732590;29;114836;-79
2022/12/17 16:29:30;;;;;;;73.22;29.13;;;-1.90;67.90;;;;;;4731649;29;115443;-80
2022/12/17 16:31:58;;;;;;;73.60;28.73;;;-1.90;67.80;;;;;;4714815;29;115329;-80
2022/12/17 16:34:26;;;;;;;77.22;28.77;;;-1.90;67.70;;;;;;4714927;29;116571;-80
2022/12/17 16:36:54;;;;;;;77.53;29.73;;;-1.90;67.70;;;;;;4715681;29;114950;-79
2022/12/17 16:39:23;;;;;;;80.78;28.90;;;-1.90;67.70;;;;;;4715613;29;115236;-79
2022/12/17 16:41:50;;;;;;;77.55;30.63;;;-1.90;67.60;;;;;;4714956;29;114905;-80
2022/12/17 16:44:17;;;;;;;77.78;28.27;;;-1.90;67.60;;;;;;4715287;29;114859;-79
2022/12/17 16:46:45;;;;;;;82.03;28.27;;;-1.90;67.50;;;;;;4718293;29;116395;-80
2022/12/17 16:49:22;;;;;;;79.32;32.75;;;-2.00;67.60;;;;;;4710801;29;116006;-79
2022/12/17 16:51:50;;;;;;;81.53;31.60;;;-2.00;67.70;;;;;;4715414;29;115092;-80
2022/12/17 16:54:20;;;;;;;78.30;30.02;;;-1.90;67.70;;;;;;4716921;29;116784;-80
2022/12/17 16:56:48;;;;;;;80.70;28.73;;;-1.90;67.60;;;;;;4732418;29;114742;-80
2022/12/17 16:59:15;;;;;;;76.20;29.63;;;-1.90;67.60;;;;;;4718475;29;115688;-80
2022/12/17 17:01:45;;;;;;;75.97;28.05;;;-1.90;67.40;;;;;;4719848;29;115109;-80
2022/12/17 17:04:13;;;;;;;78.57;29.92;;;-1.90;67.50;;;;;;4707677;29;114622;-80
2022/12/17 17:07:08;;;;;;;71.15;27.02;;;-1.90;67.70;;;;;;4733653;29;117050;-80
2022/12/17 17:09:36;;;;;;;76.00;27.08;;;-1.90;67.70;;;;;;4704731;29;117282;-80
2022/12/17 17:12:03;;;;;;;76.13;28.65;;;-2.00;67.50;;;;;;4717181;29;114796;-80
2022/12/17 17:14:31;;;;;;;80.78;28.42;;;-2.00;67.50;;;;;;4715930;29;114683;-79
2022/12/17 17:16:58;;;;;;;83.00;28.00;;;-2.10;67.60;;;;;;4720355;29;114516;-79
2022/12/17 17:19:25;;;;;;;70.85;27.13;;;-2.10;67.60;;;;;;4716900;29;115181;-80
2022/12/17 17:21:52;;;;;;;74.50;27.38;;;-2.10;67.70;;;;;;4702239;29;114926;-79
2022/12/17 17:24:22;;;;;;;78.95;29.77;;;-2.10;67.80;;;;;;4733851;29;115825;-79
2022/12/17 17:26:50;;;;;;;76.05;27.10;;;-2.10;67.80;;;;;;4718685;29;115447;-79
2022/12/17 17:29:20;;;;;;;79.43;28.45;;;-2.10;67.70;;;;;;4720160;29;115153;-79
2022/12/17 17:31:47;;;;;;;79.78;28.02;;;-2.00;67.60;;;;;;4718760;29;115880;-79
2022/12/17 17:34:38;;;;;;;73.95;28.27;;;-2.10;67.50;;;;;;4720761;29;114509;-79
2022/12/17 17:37:09;;;;;;;;;;;-2.10;67.30;;;;;;4732691;29;114970;-79
2022/12/17 17:39:36;;;;;;;72.72;25.35;;;-2.20;67.50;;;;;;4717488;29;115134;-79
2022/12/17 17:42:03;;;;;;;71.47;25.05;;;-2.30;67.40;;;;;;4715986;29;114815;-79
2022/12/17 17:44:30;;;;;;;75.65;28.77;;;-2.20;67.50;;;;;;4719947;29;114552;-79
2022/12/17 17:46:58;;;;;;;81.65;28.15;;;-2.30;67.50;;;;;;4716567;29;115051;-78
2022/12/17 17:49:25;;;;;;;77.20;28.33;;;-2.20;67.50;;;;;;4719732;29;115774;-78
2022/12/17 17:51:54;;;;;;;74.78;27.80;;;-2.20;67.50;;;;;;4716256;29;114745;-78
2022/12/17 17:54:41;;;;;;;79.30;28.05;;;-2.20;67.40;;;;;;4707328;29;114929;-79
2022/12/17 17:57:08;;;;;;;73.53;26.52;;;-2.20;67.50;;;;;;4718059;29;116262;-79
2022/12/17 17:59:38;;;;;;;73.68;26.02;;;-2.20;67.50;;;;;;4718122;29;116912;-80
2022/12/17 18:02:05;;;;;;;71.03;26.33;;;-2.20;67.40;;;;;;4716718;29;116989;-79
2022/12/17 18:04:36;;;;;;;72.50;27.55;;;-2.20;67.40;;;;;;4711992;29;114499;-80
2022/12/17 18:07:05;;;;;;;71.55;26.13;;;-2.20;67.50;;;;;;4718752;29;114748;-79
2022/12/17 18:09:53;;;;;;;77.45;27.25;;;-2.20;67.50;;;;;;4703278;29;115788;-79
2022/12/17 18:15:06;;;;;;;67.97;25.60;;;-2.20;67.60;;;;;;4721155;29;114800;-78
2022/12/17 18:17:46;;;;;;;77.03;27.95;;;-2.10;67.60;;;;;;4719196;29;114782;-79
2022/12/17 18:20:13;;;;;;;78.10;26.85;;;-2.10;67.60;;;;;;4722415;29;115247;-79
2022/12/17 18:22:41;;;;;;;81.32;27.65;;;-2.10;67.50;;;;;;4735171;29;114658;-79
2022/12/17 18:25:09;;;;;;;89.60;27.83;;;-2.10;67.60;;;;;;4717266;29;114689;-79
2022/12/17 18:27:37;;;;;;;91.53;30.02;;;-2.10;67.60;;;;;;4717581;29;114890;-79
2022/12/17 18:30:05;;;;;;;71.93;26.40;;;-2.10;67.50;;;;;;4719252;29;115158;-79
2022/12/17 18:32:32;;;;;;;82.43;28.58;;;-2.00;67.60;;;;;;4732575;29;115699;-79
2022/12/17 18:34:59;;;;;;;78.78;27.60;;;-2.00;67.60;;;;;;4719564;29;115629;-78
2022/12/17 18:37:26;;;;;;;77.32;29.30;;;-2.00;67.50;;;;;;4721316;29;114727;-81
2022/12/17 18:39:54;;;;;;;79.95;29.33;;;-2.00;67.60;;;;;;4721060;29;115581;-79
2022/12/17 18:45:07;;;;;;;79.65;30.60;;;-2.00;67.40;;;;;;4731595;29;116596;-81
2022/12/17 18:47:34;;;;;;;81.38;29.80;;;-2.00;67.50;;;;;;4736423;29;114779;-81
2022/12/17 18:50:02;;;;;;;73.30;27.10;;;-1.90;67.50;;;;;;4732595;29;115288;-82
2022/12/17 18:52:29;;;;;;;78.13;28.45;;;-1.90;67.50;;;;;;4719982;29;114976;-82
2022/12/17 18:54:56;;;;;;;82.72;30.27;;;-1.90;67.50;;;;;;4734421;29;115097;-81
2022/12/17 18:57:23;;;;;;;81.55;27.80;;;-2.00;67.40;;;;;;4721967;29;114787;-81
2022/12/17 18:59:50;;;;;;;78.28;29.15;;;-2.00;67.30;;;;;;4721763;29;115092;-81
2022/12/17 19:02:17;;;;;;;76.65;28.73;;;-2.00;67.30;;;;;;4720712;29;114977;-81
2022/12/17 19:04:45;;;;;;;85.78;30.80;;;-2.00;67.30;;;;;;4734118;29;115101;-80
2022/12/17 19:07:12;;;;;;;83.10;28.20;;;-2.00;67.20;;;;;;4719612;29;114464;-81
2022/12/17 19:09:41;;;;;;;76.63;29.10;;;-2.00;67.20;;;;;;4719777;29;117504;-82
2022/12/17 19:12:08;;;;;;;78.63;26.90;;;-2.10;67.30;;;;;;4721608;29;114977;-81
2022/12/17 19:14:35;;;;;;;77.05;27.27;;;-2.00;67.30;;;;;;4736368;29;114674;-81
2022/12/17 19:17:03;;;;;;;79.38;29.65;;;-2.10;67.40;;;;;;4722291;29;115340;-82
2022/12/17 19:19:31;;;;;;;76.32;27.90;;;-2.10;67.30;;;;;;4720921;29;116864;-81
2022/12/17 19:21:59;;;;;;;75.82;28.58;;;-2.10;67.30;;;;;;4720161;29;115789;-82
2022/12/17 19:24:26;;;;;;;83.00;29.23;;;-2.10;67.40;;;;;;4721537;29;114926;-81
2022/12/17 19:26:53;;;;;;;79.07;28.70;;;-2.00;67.40;;;;;;4720608;29;114782;-82
2022/12/17 19:29:21;;;;;;;95.18;30.67;;;-2.10;67.40;;;;;;4718733;29;115166;-81
2022/12/17 19:31:48;;;;;;;76.55;26.17;;;-2.00;67.30;;;;;;4721042;29;114741;-82
2022/12/17 19:34:17;;;;;;;77.40;26.08;;;-2.00;67.30;;;;;;4720742;29;114829;-82
2022/12/17 19:36:44;;;;;;;77.95;27.85;;;-2.00;67.30;;;;;;4704694;29;114694;-82
2022/12/17 19:39:18;;;;;;;79.25;28.02;;;-2.00;67.20;;;;;;4719086;29;116290;-81
2022/12/17 19:41:45;;;;;;;76.28;25.65;;;-2.00;67.20;;;;;;4734158;29;114927;-82
2022/12/17 19:44:14;;;;;;;81.70;29.05;;;-2.00;67.30;;;;;;4721520;29;114658;-82
2022/12/17 19:46:41;;;;;;;91.47;30.90;;;-2.00;67.30;;;;;;4724012;29;116127;-83
2022/12/17 19:49:13;;;;;;;79.43;28.23;;;-2.00;67.20;;;;;;4731844;29;115368;-82
2022/12/17 19:51:42;;;;;;;80.75;27.75;;;-2.00;67.20;;;;;;4719092;29;115063;-81
2022/12/17 19:54:12;;;;;;;80.13;29.75;;;-2.10;67.20;;;;;;4731197;29;114451;-81
2022/12/17 19:56:39;;;;;;;79.40;26.98;;;-2.00;67.20;;;;;;4733838;29;114458;-81
2022/12/17 19:59:08;;;;;;;75.57;26.88;;;-2.10;67.20;;;;;;4721429;29;118271;-81
2022/12/17 20:01:41;;;;;;;77.32;27.55;;;-2.10;67.10;;;;;;4702815;29;117248;-81
2022/12/17 20:04:11;;;;;;;74.65;25.88;;;-2.10;67.00;;;;;;4699846;29;114956;-82
2022/12/17 20:06:38;;;;;;;68.57;24.05;;;-2.10;67.10;;;;;;4710681;29;114706;-82
2022/12/17 20:09:05;;;;;;;75.82;27.08;;;-2.10;67.10;;;;;;4720528;29;115165;-82
2022/12/17 20:11:33;;;;;;;78.53;27.27;;;-2.10;67.10;;;;;;4719767;29;114968;-82
2022/12/17 20:14:15;;;;;;;76.53;26.15;;;-2.10;67.20;;;;;;4719118;29;114678;-82
2022/12/17 20:16:50;;;;;;;71.05;24.77;;;-2.10;67.10;;;;;;4720674;29;114572;-80
2022/12/17 20:19:20;;;;;;;73.25;24.17;;;-2.10;67.10;;;;;;4718101;29;117096;-82
2022/12/17 20:21:48;;;;;;;77.30;25.67;;;-2.10;67.00;;;;;;4720384;29;114703;-82
2022/12/17 20:24:16;;;;;;;68.30;24.13;;;-2.10;66.90;;;;;;4690364;29;114766;-82
2022/12/17 20:26:44;;;;;;;73.80;23.88;;;-2.10;67.00;;;;;;4705197;29;114639;-81
2022/12/17 20:29:11;;;;;;;72.10;26.33;;;-2.10;67.10;;;;;;4703077;29;115232;-81
2022/12/17 20:31:38;;;;;;;77.30;26.80;;;-2.10;67.10;;;;;;4720023;29;114829;-82
2022/12/17 20:34:06;;;;;;;62.72;23.92;;;-2.00;67.10;;;;;;4719775;29;114673;-82
2022/12/17 20:36:34;;;;;;;84.60;28.45;;;-2.10;67.10;;;;;;4719392;29;114663;-82
2022/12/17 20:39:04;;;;;;;80.43;27.67;;;-2.10;67.10;;;;;;4717313;29;116376;-82
2022/12/17 20:41:31;;;;;;;70.95;24.65;;;-2.10;66.90;;;;;;4719514;29;116719;-82
2022/12/17 20:44:03;;;;;;;80.70;27.20;;;-2.10;66.90;;;;;;4720470;29;117764;-82
2022/12/17 20:46:36;;;;;;;63.55;24.05;;;-2.20;66.80;;;;;;4732130;29;114853;-81
2022/12/17 20:49:04;;;;;;;71.43;23.65;;;-2.20;66.90;;;;;;4718352;29;115626;-81
2022/12/17 20:51:31;;;;;;;73.97;25.40;;;-2.20;66.90;;;;;;4719345;29;117613;-81
2022/12/17 20:53:59;;;;;;;71.63;25.40;;;-2.20;66.80;;;;;;4718629;29;114540;-82
2022/12/17 20:56:31;;;;;;;66.30;23.50;;;-2.30;66.70;;;;;;4719165;29;114927;-82
2022/12/17 20:59:07;;;;;;;68.78;22.80;;;-2.30;66.80;;;;;;4702474;29;115297;-82
2022/12/17 21:01:35;;;;;;;69.20;25.13;;;-2.30;66.90;;;;;;4732390;29;117252;-81
2022/12/17 21:04:03;;;;;;;64.63;23.05;;;-2.30;67.00;;;;;;4733812;29;114927;-80
2022/12/17 21:06:35;;;;;;;66.82;23.40;;;-2.30;67.10;;;;;;4718076;29;114669;-82
2022/12/17 21:09:02;;;;;;;71.05;23.63;;;-2.40;67.00;;;;;;4704688;29;115233;-81
2022/12/17 21:11:31;;;;;;;75.78;24.55;;;-2.30;67.00;;;;;;4716774;29;114841;-81
2022/12/17 21:14:05;;;;;;;68.93;24.70;;;-2.30;67.00;;;;;;4718170;29;116503;-81
2022/12/17 21:16:33;;;;;;;76.95;26.33;;;-2.30;67.00;;;;;;4718122;29;114561;-80
2022/12/17 21:19:01;;;;;;;71.65;23.70;;;-2.30;66.90;;;;;;4731325;29;115162;-80
2022/12/17 21:21:30;;;;;;;76.70;24.55;;;-2.20;66.90;;;;;;4703092;29;117457;-83
2022/12/17 21:23:58;;;;;;;67.13;22.95;;;-2.20;66.80;;;;;;4718474;29;114566;-81
2022/12/17 21:26:33;;;;;;;74.95;25.55;;;-2.20;66.80;;;;;;4733606;29;114791;-80
2022/12/17 21:29:01;;;;;;;59.38;21.92;;;-2.20;66.80;;;;;;4718803;29;115184;-81
2022/12/17 21:31:49;;;;;;;65.20;21.50;;;-2.20;66.70;;;;;;4718512;29;115019;-80
2022/12/17 21:34:21;;;;;;;64.60;21.60;;;-2.20;66.70;;;;;;4732420;29;116887;-80
2022/12/17 21:36:49;;;;;;;59.67;20.90;;;-2.20;66.80;;;;;;4733171;29;115019;-80
2022/12/17 21:39:17;;;;;;;69.25;24.58;;;-2.20;66.80;;;;;;4715963;29;117942;-80
2022/12/17 21:43:00;;;;;;;76.22;24.00;;;-2.20;66.80;;;;;;4716673;29;115223;-80
2022/12/17 21:44:31;;;;;;;69.72;24.48;;;-2.20;66.60;;;;;;4721505;29;117790;-81
2022/12/17 21:46:58;;;;;;;72.75;25.10;;;-2.20;66.50;;;;;;4723345;29;114669;-80
2022/12/17 21:49:26;;;;;;;65.72;23.52;;;-2.30;66.40;;;;;;4734949;29;118419;-81
2022/12/17 21:51:57;;;;;;;69.45;23.02;;;-2.30;66.40;;;;;;4735744;29;114789;-81
2022/12/17 21:54:25;;;;;;;66.07;23.27;;;-2.30;66.40;;;;;;4726388;29;114587;-82
2022/12/17 21:56:52;;;;;;;66.20;21.05;;;-2.20;66.40;;;;;;4722591;29;114633;-82
2022/12/17 21:59:19;;;;;;;66.95;23.15;;;-2.30;66.40;;;;;;4722336;29;115521;-82
2022/12/17 22:01:46;;;;;;;68.22;21.65;;;-2.30;66.60;;;;;;4721663;29;115020;-82
2022/12/17 22:04:14;;;;;;;68.85;22.35;;;-2.30;66.50;;;;;;4722716;29;114580;-81
2022/12/17 22:06:42;;;;;;;75.60;22.35;;;-2.30;66.50;;;;;;4721134;29;116684;-81
2022/12/17 22:09:30;;;;;;;66.78;22.52;;;-2.30;66.50;;;;;;4730710;29;115506;-82
2022/12/17 22:15:06;;;;;;;67.28;23.50;;;-2.30;66.70;;;;;;4721765;29;114875;-79
2022/12/17 22:17:34;;;;;;;69.00;24.23;;;-2.30;66.70;;;;;;4708474;29;114582;-79
2022/12/17 22:20:01;;;;;;;70.35;23.98;;;-2.30;66.70;;;;;;4689010;29;118574;-79
2022/12/17 22:22:29;;;;;;;65.55;23.30;;;-2.30;66.70;;;;;;4720824;29;114705;-80
2022/12/17 22:24:56;;;;;;;73.03;23.63;;;-2.30;66.80;;;;;;4734920;29;115008;-81
2022/12/17 22:27:29;;;;;;;73.80;24.52;;;-2.30;66.80;;;;;;4725059;29;118245;-81
2022/12/17 22:33:25;;;;;;;76.30;27.02;;;-2.30;66.80;;;;;;4720222;29;115369;-81
2022/12/17 22:35:53;;;;;;;82.68;28.10;;;-2.20;66.80;;;;;;4720125;29;114543;-82
2022/12/17 22:38:40;;;;;;;69.30;25.05;;;-2.20;66.80;;;;;;4707871;29;114810;-81
2022/12/17 22:44:34;;;;;;;72.15;23.30;;;-2.20;66.70;;;;;;4720960;29;114615;-81
2022/12/17 22:47:18;;;;;;;70.13;22.38;;;-2.30;66.70;;;;;;4732366;29;114558;-80
2022/12/17 22:49:46;;;;;;;66.47;22.17;;;-2.30;66.80;;;;;;4702579;29;114768;-80
2022/12/17 22:52:13;;;;;;;62.75;22.77;;;-2.30;66.80;;;;;;4734794;29;115213;-81
2022/12/17 22:54:43;;;;;;;71.03;22.20;;;-2.30;66.80;;;;;;4719982;29;114979;-80
2022/12/17 22:57:11;;;;;;;64.13;22.00;;;-2.30;66.80;;;;;;4720080;29;114527;-81
2022/12/17 22:59:58;;;;;;;65.63;22.08;;;-2.30;66.80;;;;;;4735449;29;114569;-80
2022/12/17 23:02:25;;;;;;;70.63;22.65;;;-2.40;66.90;;;;;;4706388;29;115241;-80
2022/12/17 23:04:53;;;;;;;64.65;23.27;;;-2.30;67.10;;;;;;4720990;29;114667;-80
2022/12/17 23:07:20;;;;;;;68.85;22.05;;;-2.30;67.10;;;;;;4722465;29;114765;-80
2022/12/17 23:09:52;;;;;;;64.35;22.88;;;-2.30;67.10;;;;;;4722931;29;114754;-81
2022/12/17 23:15:06;;;;;;;78.43;26.15;;;-2.30;67.10;;;;;;4722020;29;114769;-80
2022/12/17 23:17:33;;;;;;;75.63;27.05;;;-2.30;67.00;;;;;;4707115;29;114776;-80
2022/12/17 23:20:01;;;;;;;75.47;24.63;;;-2.40;66.90;;;;;;4722386;29;114712;-81
2022/12/17 23:22:28;;;;;;;72.82;24.90;;;-2.40;66.90;;;;;;4706030;29;116706;-81
2022/12/17 23:24:56;;;;;;;70.97;23.67;;;-2.40;66.90;;;;;;4733351;29;115360;-81
2022/12/17 23:27:23;;;;;;;78.03;27.33;;;-2.30;66.80;;;;;;4721522;29;114928;-81
2022/12/17 23:29:50;;;;;;;81.07;25.80;;;-2.40;66.60;;;;;;4735497;29;117299;-81
2022/12/17 23:32:17;;;;;;;79.35;24.83;;;-2.40;66.60;;;;;;4717303;29;115083;-80
2022/12/17 23:34:44;;;;;;;85.68;26.65;;;-2.40;66.60;;;;;;4719555;29;115371;-81
2022/12/17 23:37:11;;;;;;;89.93;26.35;;;-2.40;66.60;;;;;;4721396;29;114430;-81
2022/12/17 23:39:39;;;;;;;79.63;25.27;;;-2.40;66.50;;;;;;4735827;29;114478;-80
2022/12/17 23:42:06;;;;;;;81.72;25.73;;;-2.50;66.50;;;;;;4721980;29;115185;-80
2022/12/17 23:44:33;;;;;;;84.85;26.00;;;-2.50;66.40;;;;;;4718737;29;114851;-80
2022/12/17 23:47:01;;;;;;;80.13;24.13;;;-2.50;66.40;;;;;;4721501;29;114463;-80
2022/12/17 23:49:28;;;;;;;79.38;23.17;;;-2.60;66.30;;;;;;4734478;29;114780;-80
2022/12/17 23:51:55;;;;;;;85.70;28.05;;;-2.70;66.30;;;;;;4719604;29;115988;-81
2022/12/17 23:54:23;;;;;;;87.35;24.88;;;-2.70;66.30;;;;;;4721040;29;114716;-80
2022/12/17 23:56:50;;;;;;;90.28;27.65;;;-2.70;66.40;;;;;;4720038;29;114613;-80
2022/12/17 23:59:18;;;;;;;81.85;23.00;;;-2.70;66.60;;;;;;4721642;29;114719;-80
